createdAt,value
2018-05-08T00:01:17.564Z,15.00
2018-05-08T00:03:46.633Z,14.90
2018-05-08T00:06:15.692Z,14.80
2018-05-08T00:08:43.977Z,14.80
2018-05-08T00:11:12.245Z,14.80
2018-05-08T00:13:40.543Z,14.80
2018-05-08T00:16:08.785Z,14.70
2018-05-08T00:18:37.027Z,14.80
2018-05-08T00:21:05.321Z,14.70
2018-05-08T00:23:34.337Z,14.60
2018-05-08T00:26:02.669Z,14.60
2018-05-08T00:28:30.975Z,14.60
2018-05-08T00:30:59.323Z,14.60
2018-05-08T00:33:27.550Z,14.60
2018-05-08T00:35:55.801Z,14.50
2018-05-08T00:38:24.867Z,14.50
2018-05-08T00:40:53.909Z,14.50
2018-05-08T00:43:22.955Z,14.50
2018-05-08T00:45:51.190Z,14.40
2018-05-08T00:48:19.513Z,14.40
2018-05-08T00:50:48.226Z,14.40
2018-05-08T00:53:17.228Z,14.40
2018-05-08T00:55:45.530Z,14.40
2018-05-08T00:58:13.931Z,14.30
2018-05-08T01:00:42.158Z,14.30
2018-05-08T01:03:11.175Z,14.30
2018-05-08T01:05:39.416Z,14.30
2018-05-08T01:08:08.451Z,14.20
2018-05-08T01:10:36.759Z,14.20
2018-05-08T01:13:05.073Z,14.20
2018-05-08T01:15:33.912Z,14.10
2018-05-08T01:18:02.181Z,14.10
2018-05-08T01:20:30.451Z,14.10
2018-05-08T01:22:58.679Z,14.10
2018-05-08T01:25:27.811Z,14.00
2018-05-08T01:27:57.335Z,14.00
2018-05-08T01:30:25.560Z,14.00
2018-05-08T01:32:55.513Z,13.90
2018-05-08T01:35:23.856Z,13.90
2018-05-08T01:37:52.207Z,13.90
2018-05-08T01:40:20.437Z,13.90
2018-05-08T01:42:48.720Z,13.80
2018-05-08T01:45:16.993Z,13.80
2018-05-08T01:47:45.289Z,13.80
2018-05-08T01:50:13.603Z,13.70
2018-05-08T01:52:41.875Z,13.70
2018-05-08T01:55:10.229Z,13.70
2018-05-08T01:57:38.468Z,13.70
2018-05-08T02:00:06.715Z,13.60
2018-05-08T02:02:35.001Z,13.60
2018-05-08T02:05:04.036Z,13.60
2018-05-08T02:07:32.279Z,13.60
2018-05-08T02:10:01.320Z,13.60
2018-05-08T02:12:29.785Z,13.50
2018-05-08T02:14:58.050Z,13.50
2018-05-08T02:17:26.324Z,13.50
2018-05-08T02:19:55.344Z,13.50
2018-05-08T02:22:23.719Z,13.50
2018-05-08T02:24:52.777Z,13.50
2018-05-08T02:27:21.836Z,13.50
2018-05-08T02:29:50.878Z,13.50
2018-05-08T02:32:19.930Z,13.40
2018-05-08T02:34:48.169Z,13.40
2018-05-08T02:37:16.443Z,13.40
2018-05-08T02:39:44.727Z,13.40
2018-05-08T02:42:14.684Z,13.40
2018-05-08T02:44:43.030Z,13.40
2018-05-08T02:47:11.301Z,13.40
2018-05-08T02:49:39.608Z,13.40
2018-05-08T02:52:07.871Z,13.40
2018-05-08T02:54:36.153Z,13.30
2018-05-08T02:57:04.447Z,13.30
2018-05-08T02:59:32.720Z,13.30
2018-05-08T03:02:02.502Z,13.30
2018-05-08T03:04:30.829Z,13.30
2018-05-08T03:06:59.820Z,13.30
2018-05-08T03:09:28.970Z,13.30
2018-05-08T03:11:57.232Z,13.30
2018-05-08T03:14:25.612Z,13.30
2018-05-08T03:16:53.889Z,13.30
2018-05-08T03:19:22.180Z,13.30
2018-05-08T03:21:50.464Z,13.30
2018-05-08T03:24:19.957Z,13.20
2018-05-08T03:26:48.211Z,13.20
2018-05-08T03:29:16.529Z,13.20
2018-05-08T03:31:44.866Z,13.20
2018-05-08T03:34:13.132Z,13.20
2018-05-08T03:36:41.372Z,13.20
2018-05-08T03:39:09.593Z,13.20
2018-05-08T03:41:38.037Z,13.20
2018-05-08T03:44:06.400Z,13.20
2018-05-08T03:46:34.657Z,13.10
2018-05-08T03:49:02.960Z,13.20
2018-05-08T03:51:31.231Z,13.10
2018-05-08T03:53:59.522Z,13.20
2018-05-08T03:56:27.893Z,13.20
2018-05-08T03:58:56.149Z,13.20
2018-05-08T04:01:36.293Z,13.20
2018-05-08T04:04:16.295Z,13.20
2018-05-08T04:06:58.089Z,13.20
2018-05-08T04:09:27.163Z,13.20
2018-05-08T04:11:55.445Z,13.20
2018-05-08T04:14:23.768Z,13.20
2018-05-08T04:16:52.069Z,13.30
2018-05-08T04:19:21.232Z,13.30
2018-05-08T04:21:49.474Z,13.30
2018-05-08T04:24:17.788Z,13.40
2018-05-08T04:26:46.824Z,13.50
2018-05-08T04:29:15.104Z,13.50
2018-05-08T04:31:43.349Z,13.50
2018-05-08T04:34:11.642Z,13.60
2018-05-08T04:36:39.991Z,13.60
2018-05-08T04:39:09.711Z,13.70
2018-05-08T04:41:37.965Z,13.70
2018-05-08T04:44:06.989Z,13.90
2018-05-08T04:46:35.294Z,13.90
2018-05-08T04:49:03.640Z,13.90
2018-05-08T04:51:31.931Z,14.00
2018-05-08T04:54:01.654Z,14.10
2018-05-08T04:56:29.959Z,14.10
2018-05-08T04:58:58.301Z,14.30
2018-05-08T05:01:26.596Z,15.10
2018-05-08T05:03:54.879Z,16.60
2018-05-08T05:06:23.136Z,17.20
2018-05-08T05:08:53.113Z,17.70
2018-05-08T05:11:23.033Z,20.00
2018-05-08T05:13:51.290Z,20.00
2018-05-08T05:16:19.562Z,20.70
2018-05-08T05:18:48.617Z,21.70
2018-05-08T05:21:16.891Z,21.70
2018-05-08T05:23:45.157Z,22.30
2018-05-08T05:26:13.385Z,22.70
2018-05-08T05:28:42.437Z,23.60
2018-05-08T05:31:10.841Z,23.50
2018-05-08T05:33:39.224Z,23.50
2018-05-08T05:36:07.458Z,23.60
2018-05-08T05:38:36.890Z,23.60
2018-05-08T05:41:05.116Z,24.00
2018-05-08T05:43:33.411Z,24.50
2018-05-08T05:46:02.523Z,25.90
2018-05-08T05:48:30.930Z,25.80
2018-05-08T05:50:59.163Z,26.20
2018-05-08T05:53:27.444Z,26.00
2018-05-08T05:55:55.692Z,26.40
2018-05-08T05:58:23.999Z,27.40
2018-05-08T06:00:52.268Z,27.10
2018-05-08T06:03:20.541Z,26.90
2018-05-08T06:05:48.896Z,26.90
2018-05-08T06:10:49.597Z,27.00
2018-05-08T06:13:17.900Z,27.70
2018-05-08T06:15:47.664Z,28.50
2018-05-08T06:18:15.933Z,28.50
2018-05-08T06:20:44.998Z,28.10
2018-05-08T06:23:14.111Z,27.20
2018-05-08T06:25:42.377Z,27.20
2018-05-08T06:28:10.647Z,27.60
2018-05-08T06:30:38.967Z,27.50
2018-05-08T06:33:07.238Z,28.00
2018-05-08T06:35:35.545Z,28.60
2018-05-08T06:38:03.823Z,28.00
2018-05-08T06:40:32.069Z,28.30
2018-05-08T06:43:00.696Z,28.40
2018-05-08T06:45:29.727Z,29.90
2018-05-08T06:47:58.020Z,29.80
2018-05-08T06:50:26.304Z,30.40
2018-05-08T10:46:59.369Z,25.60
2018-05-08T16:10:00.155Z,26.30
2018-05-08T19:00:31.011Z,22.80
2018-05-08T19:23:31.098Z,22.10
2018-05-08T23:20:32.425Z,17.20
